createdAt,value
2018-09-23T00:00:56.657Z,1.53
2018-09-23T00:03:24.872Z,0.70
2018-09-23T00:05:53.078Z,0.90
2018-09-23T00:08:21.342Z,0.90
2018-09-23T00:10:49.538Z,0.87
2018-09-23T00:13:17.735Z,0.70
2018-09-23T00:15:45.956Z,0.90
2018-09-23T00:18:14.212Z,1.33
2018-09-23T00:20:42.412Z,2.20
2018-09-23T00:23:10.622Z,1.07
2018-09-23T00:25:38.874Z,1.27
2018-09-23T00:28:07.156Z,1.90
2018-09-23T00:30:35.352Z,1.07
2018-09-23T00:33:03.537Z,0.97
2018-09-23T00:35:31.762Z,1.80
2018-09-23T00:38:00.030Z,1.00
2018-09-23T00:40:28.684Z,1.10
2018-09-23T00:42:56.916Z,1.00
2018-09-23T00:45:25.106Z,1.13
2018-09-23T00:47:53.374Z,1.20
2018-09-23T00:50:21.570Z,1.07
2018-09-23T00:52:49.762Z,0.97
2018-09-23T00:55:17.958Z,1.13
2018-09-23T00:57:46.237Z,1.90
2018-09-23T01:00:14.422Z,0.87
2018-09-23T01:02:42.646Z,1.20
2018-09-23T01:05:11.079Z,1.63
2018-09-23T01:07:39.288Z,0.70
2018-09-23T01:10:07.565Z,0.63
2018-09-23T01:12:35.808Z,1.10
2018-09-23T01:15:04.022Z,1.43
2018-09-23T01:17:32.205Z,2.27
2018-09-23T01:20:00.479Z,0.93
2018-09-23T01:22:28.672Z,3.10
2018-09-23T01:24:56.873Z,1.53
2018-09-23T01:27:25.114Z,1.03
2018-09-23T01:29:53.325Z,1.27
2018-09-23T01:32:21.518Z,1.90
2018-09-23T01:34:49.716Z,1.80
2018-09-23T01:37:18.084Z,1.53
2018-09-23T01:39:46.349Z,1.13
2018-09-23T01:42:14.531Z,2.80
2018-09-23T01:44:42.722Z,1.10
2018-09-23T01:47:10.951Z,1.27
2018-09-23T01:49:39.198Z,1.40
2018-09-23T01:52:07.376Z,1.10
2018-09-23T01:54:35.564Z,1.40
2018-09-23T01:57:03.750Z,1.60
2018-09-23T01:59:31.960Z,1.40
2018-09-23T02:02:00.168Z,1.63
2018-09-23T02:04:28.372Z,1.17
2018-09-23T02:06:56.567Z,1.67
2018-09-23T02:09:24.859Z,1.67
2018-09-23T02:11:53.064Z,0.90
2018-09-23T02:14:21.402Z,1.60
2018-09-23T02:16:49.681Z,1.60
2018-09-23T02:19:17.880Z,1.70
2018-09-23T02:21:46.088Z,2.00
2018-09-23T02:24:14.534Z,1.47
2018-09-23T02:26:42.714Z,1.50
2018-09-23T02:29:11.138Z,1.30
2018-09-23T02:31:39.324Z,1.10
2018-09-23T02:34:07.532Z,1.90
2018-09-23T02:36:35.748Z,1.53
2018-09-23T02:39:04.974Z,0.87
2018-09-23T02:41:33.162Z,1.17
2018-09-23T02:44:01.405Z,1.30
2018-09-23T02:46:29.613Z,1.13
2018-09-23T02:48:57.865Z,1.00
2018-09-23T02:51:26.408Z,1.10
2018-09-23T02:53:54.664Z,1.50
2018-09-23T02:56:22.934Z,1.80
2018-09-23T02:58:51.168Z,1.03
2018-09-23T03:01:19.388Z,1.50
2018-09-23T03:03:47.604Z,1.70
2018-09-23T03:06:15.782Z,1.07
2018-09-23T03:08:44.000Z,1.03
2018-09-23T03:11:12.222Z,1.40
2018-09-23T03:13:40.398Z,0.70
2018-09-23T03:16:09.219Z,0.77
2018-09-23T03:18:37.517Z,0.53
2018-09-23T03:21:05.738Z,0.70
2018-09-23T03:23:33.924Z,1.20
2018-09-23T03:26:02.141Z,0.70
2018-09-23T03:28:30.318Z,0.70
2018-09-23T03:30:58.536Z,0.60
2018-09-23T03:33:26.735Z,0.73
2018-09-23T03:35:54.938Z,0.60
2018-09-23T03:38:23.180Z,1.10
2018-09-23T03:40:51.450Z,0.87
2018-09-23T03:43:19.716Z,0.60
2018-09-23T03:45:47.898Z,0.60
2018-09-23T03:48:16.157Z,1.67
2018-09-23T03:50:44.427Z,0.70
2018-09-23T03:53:12.715Z,0.73
2018-09-23T03:55:40.907Z,0.80
2018-09-23T03:58:09.219Z,1.10
2018-09-23T04:00:37.331Z,1.20
2018-09-23T04:03:05.999Z,0.80
2018-09-23T04:05:34.208Z,1.47
2018-09-23T04:08:02.525Z,1.37
2018-09-23T04:10:30.719Z,1.00
2018-09-23T04:12:58.924Z,1.27
2018-09-23T04:15:28.108Z,1.00
2018-09-23T04:17:56.593Z,0.90
2018-09-23T04:20:24.794Z,1.00
2018-09-23T04:22:53.013Z,1.40
2018-09-23T04:25:22.167Z,0.83
2018-09-23T04:27:50.806Z,1.10
2018-09-23T04:30:21.094Z,1.03
2018-09-23T04:32:49.583Z,1.07
2018-09-23T04:35:18.414Z,0.90
2018-09-23T04:37:46.951Z,1.07
2018-09-23T04:40:15.607Z,0.80
2018-09-23T04:42:43.925Z,1.40
2018-09-23T04:45:12.165Z,1.63
2018-09-23T04:47:40.365Z,1.20
2018-09-23T04:50:08.557Z,0.70
2018-09-23T04:52:36.775Z,0.90
2018-09-23T04:55:04.997Z,1.17
2018-09-23T04:57:33.203Z,1.10
2018-09-23T05:00:01.418Z,1.00
2018-09-23T05:02:29.623Z,1.20
2018-09-23T05:04:57.845Z,1.30
2018-09-23T05:07:26.031Z,1.20
2018-09-23T05:09:54.235Z,1.37
2018-09-23T05:12:22.425Z,1.40
2018-09-23T05:14:50.655Z,1.70
2018-09-23T05:17:18.850Z,1.30
2018-09-23T05:19:47.027Z,1.27
2018-09-23T05:22:15.239Z,1.40
2018-09-23T05:24:43.442Z,1.60
2018-09-23T05:27:11.659Z,1.17
2018-09-23T05:29:39.849Z,1.30
2018-09-23T05:32:08.078Z,0.80
2018-09-23T05:34:36.265Z,1.87
2018-09-23T05:37:04.467Z,1.10
2018-09-23T05:39:32.641Z,1.80
2018-09-23T05:42:00.830Z,1.37
2018-09-23T05:44:29.046Z,1.23
2018-09-23T05:46:57.239Z,1.93
2018-09-23T05:49:25.468Z,1.57
2018-09-23T05:51:53.672Z,1.77
2018-09-23T05:54:21.866Z,2.67
2018-09-23T05:56:50.065Z,2.90
2018-09-23T05:59:18.277Z,2.67
2018-09-23T06:01:46.480Z,2.00
2018-09-23T06:04:14.735Z,2.43
2018-09-23T06:06:42.952Z,2.23
2018-09-23T06:09:11.146Z,2.90
2018-09-23T06:11:39.327Z,3.30
2018-09-23T06:14:07.554Z,3.27
2018-09-23T06:16:35.751Z,2.80
2018-09-23T06:19:03.991Z,2.23
2018-09-23T06:21:32.194Z,3.23
2018-09-23T06:24:00.438Z,2.70
2018-09-23T06:26:28.641Z,2.37
2018-09-23T06:28:56.844Z,2.40
2018-09-23T06:31:25.043Z,2.90
2018-09-23T06:33:53.274Z,2.10
2018-09-23T06:36:21.446Z,1.90
2018-09-23T06:38:50.100Z,2.83
2018-09-23T06:41:18.305Z,2.63
2018-09-23T06:43:46.520Z,3.13
2018-09-23T06:46:15.135Z,2.43
2018-09-23T06:48:43.339Z,2.30
2018-09-23T06:51:11.595Z,2.30
2018-09-23T06:53:39.758Z,2.30
2018-09-23T06:56:08.022Z,3.80
2018-09-23T06:58:36.220Z,2.63
2018-09-23T07:01:04.435Z,2.30
2018-09-23T07:03:32.638Z,2.93
2018-09-23T07:06:00.840Z,2.40
2018-09-23T07:08:29.046Z,2.20
2018-09-23T07:10:57.250Z,1.83
2018-09-23T07:13:25.488Z,3.03
2018-09-23T07:15:53.658Z,1.73
2018-09-23T07:18:21.898Z,2.57
2018-09-23T07:20:50.107Z,2.27
2018-09-23T07:23:18.320Z,1.43
2018-09-23T07:25:46.536Z,1.73
2018-09-23T07:28:14.726Z,2.17
2018-09-23T07:30:44.210Z,1.63
2018-09-23T07:33:12.416Z,2.13
2018-09-23T07:35:40.680Z,2.73
2018-09-23T07:38:08.937Z,3.80
2018-09-23T07:40:37.188Z,2.30
2018-09-23T07:43:05.535Z,2.70
2018-09-23T07:45:33.718Z,4.10
2018-09-23T07:48:02.013Z,2.93
2018-09-23T07:50:30.230Z,2.10
2018-09-23T07:52:58.563Z,3.80
2018-09-23T07:55:26.754Z,2.70
2018-09-23T07:57:55.024Z,2.30
2018-09-23T08:00:23.294Z,3.10
2018-09-23T08:02:51.479Z,3.17
2018-09-23T08:05:19.723Z,3.53
2018-09-23T08:07:48.974Z,2.37
2018-09-23T08:10:17.805Z,2.00
2018-09-23T08:12:46.360Z,2.10
2018-09-23T08:15:15.067Z,2.77
2018-09-23T08:17:43.540Z,2.50
2018-09-23T08:20:11.849Z,1.67
2018-09-23T08:22:40.021Z,2.00
2018-09-23T08:25:08.845Z,2.50
2018-09-23T08:27:38.685Z,2.30
2018-09-23T08:30:07.703Z,2.90
2018-09-23T08:32:35.881Z,2.50
2018-09-23T08:35:04.113Z,3.13
2018-09-23T08:37:32.322Z,1.97
2018-09-23T08:40:00.590Z,2.60
2018-09-23T08:42:28.739Z,2.23
2018-09-23T08:44:56.959Z,1.77
2018-09-23T08:47:25.172Z,2.07
2018-09-23T08:49:53.539Z,1.43
2018-09-23T08:52:21.775Z,0.90
2018-09-23T08:54:49.973Z,1.20
2018-09-23T08:57:18.241Z,0.73
2018-09-23T08:59:46.373Z,1.17
2018-09-23T09:02:14.589Z,1.13
2018-09-23T09:04:42.823Z,1.07
2018-09-23T09:07:11.082Z,1.60
2018-09-23T09:09:39.303Z,1.33
2018-09-23T09:12:07.507Z,1.40
2018-09-23T09:14:35.747Z,1.33
2018-09-23T09:17:04.004Z,0.90
2018-09-23T09:19:32.205Z,0.70
2018-09-23T09:22:00.440Z,1.50
2018-09-23T09:24:28.623Z,0.77
2018-09-23T09:26:56.933Z,0.47
2018-09-23T09:29:25.163Z,0.60
2018-09-23T09:31:53.352Z,0.87
2018-09-23T09:34:21.597Z,0.50
2018-09-23T09:36:49.881Z,0.60
2018-09-23T09:39:18.061Z,0.50
2018-09-23T09:41:46.256Z,0.60
2018-09-23T09:44:14.819Z,0.50
2018-09-23T09:46:43.015Z,0.97
2018-09-23T09:49:11.229Z,0.60
2018-09-23T09:51:39.651Z,0.83
2018-09-23T09:54:07.879Z,0.60
2018-09-23T09:56:36.051Z,0.40
2018-09-23T09:59:04.606Z,0.70
2018-09-23T10:01:32.834Z,0.70
2018-09-23T10:04:01.110Z,0.60
2018-09-23T10:06:29.272Z,0.60
2018-09-23T10:08:57.535Z,0.50
2018-09-23T10:11:25.999Z,0.63
2018-09-23T10:13:54.159Z,0.63
2018-09-23T10:16:22.340Z,0.90
2018-09-23T10:18:50.588Z,0.53
2018-09-23T10:21:18.834Z,0.70
2018-09-23T10:23:47.109Z,0.40
2018-09-23T10:26:15.302Z,0.80
2018-09-23T10:28:43.621Z,0.50
2018-09-23T10:31:11.979Z,0.53
2018-09-23T10:33:40.021Z,0.50
2018-09-23T10:36:08.276Z,0.80
2018-09-23T10:38:36.460Z,0.50
2018-09-23T10:41:04.644Z,0.60
2018-09-23T10:43:32.855Z,0.50
2018-09-23T10:46:01.105Z,0.60
2018-09-23T10:48:29.512Z,0.40
2018-09-23T10:50:57.827Z,0.47
2018-09-23T10:53:26.033Z,0.60
2018-09-23T10:55:54.243Z,0.40
2018-09-23T10:58:22.488Z,0.63
2018-09-23T11:00:50.798Z,0.80
2018-09-23T11:03:18.982Z,0.40
2018-09-23T11:05:47.216Z,0.50
2018-09-23T11:08:15.469Z,0.40
2018-09-23T11:10:43.651Z,0.40
2018-09-23T11:13:11.859Z,0.40
2018-09-23T11:15:40.094Z,0.67
2018-09-23T11:18:08.351Z,0.50
2018-09-23T11:20:36.635Z,0.60
2018-09-23T11:23:04.927Z,0.60
2018-09-23T11:25:33.105Z,0.40
2018-09-23T11:28:01.376Z,0.40
2018-09-23T11:30:29.560Z,0.50
2018-09-23T11:32:57.757Z,0.50
2018-09-23T11:35:25.960Z,0.50
2018-09-23T11:37:54.193Z,0.70
2018-09-23T11:40:22.472Z,0.40
2018-09-23T11:42:50.712Z,0.40
2018-09-23T11:45:18.880Z,0.40
2018-09-23T11:47:47.100Z,0.40
2018-09-23T11:50:15.290Z,0.40
2018-09-23T11:52:43.501Z,0.50
2018-09-23T11:55:11.722Z,0.57
2018-09-23T11:57:39.944Z,0.50
2018-09-23T12:00:08.164Z,0.37
2018-09-23T12:02:36.592Z,0.47
2018-09-23T12:05:04.888Z,0.47
2018-09-23T12:07:33.113Z,0.50
2018-09-23T12:10:01.354Z,0.53
2018-09-23T12:12:29.573Z,0.40
2018-09-23T12:14:57.782Z,0.50
2018-09-23T12:17:25.976Z,0.60
2018-09-23T12:19:54.168Z,0.40
2018-09-23T12:22:22.384Z,0.60
2018-09-23T12:24:50.592Z,1.07
2018-09-23T12:27:18.774Z,0.50
2018-09-23T12:29:46.970Z,0.50
2018-09-23T12:32:15.154Z,0.60
2018-09-23T12:34:43.381Z,0.60
2018-09-23T12:37:11.576Z,0.40
2018-09-23T12:39:39.985Z,0.50
2018-09-23T12:42:08.158Z,0.50
2018-09-23T12:44:36.340Z,0.70
2018-09-23T12:47:04.559Z,0.50
2018-09-23T12:49:32.744Z,0.50
2018-09-23T12:52:00.940Z,1.27
2018-09-23T12:54:29.138Z,0.50
2018-09-23T12:56:57.338Z,0.60
2018-09-23T12:59:25.537Z,0.57
2018-09-23T13:01:53.738Z,0.63
2018-09-23T13:04:21.923Z,0.60
2018-09-23T13:06:50.118Z,0.40
2018-09-23T13:09:18.393Z,0.53
2018-09-23T13:11:46.912Z,0.50
2018-09-23T13:14:15.127Z,0.40
2018-09-23T13:16:43.323Z,1.17
2018-09-23T13:19:11.530Z,0.60
2018-09-23T13:21:39.731Z,0.50
2018-09-23T13:24:07.958Z,0.60
2018-09-23T13:26:36.392Z,0.57
2018-09-23T13:29:04.741Z,0.60
2018-09-23T13:31:32.833Z,0.50
2018-09-23T13:34:01.017Z,0.50
2018-09-23T13:36:29.222Z,0.90
2018-09-23T13:38:57.441Z,0.53
2018-09-23T13:41:25.664Z,0.50
2018-09-23T13:43:53.963Z,0.40
2018-09-23T13:46:22.171Z,0.40
2018-09-23T13:48:50.465Z,0.70
2018-09-23T13:51:19.275Z,0.50
2018-09-23T13:53:47.469Z,0.80
2018-09-23T13:56:15.687Z,0.70
2018-09-23T13:58:43.899Z,0.50
2018-09-23T14:01:12.117Z,0.47
2018-09-23T14:03:40.307Z,0.50
2018-09-23T14:06:08.509Z,0.60
2018-09-23T14:08:36.714Z,0.40
2018-09-23T14:11:04.879Z,0.50
2018-09-23T14:13:33.068Z,0.50
2018-09-23T14:16:01.271Z,0.70
2018-09-23T14:18:29.486Z,0.80
2018-09-23T14:20:57.658Z,0.50
2018-09-23T14:23:25.888Z,0.50
2018-09-23T14:25:54.096Z,0.57
2018-09-23T14:28:22.343Z,1.10
2018-09-23T14:30:50.554Z,1.20
2018-09-23T15:14:00.029Z,0.40
2018-09-23T15:16:28.253Z,0.30
2018-09-23T15:18:56.460Z,0.40
2018-09-23T15:30:22.810Z,0.40
2018-09-23T15:32:51.068Z,0.47
2018-09-23T15:35:19.277Z,0.70
2018-09-23T15:37:47.475Z,0.50
2018-09-23T15:40:15.681Z,0.40
2018-09-23T15:42:43.950Z,0.40
2018-09-23T15:45:12.147Z,0.40
2018-09-23T15:47:40.367Z,0.50
2018-09-23T15:50:08.594Z,0.47
2018-09-23T15:52:36.845Z,0.40
2018-09-23T15:55:05.069Z,0.50
2018-09-23T15:57:33.271Z,0.50
2018-09-23T16:00:01.586Z,0.50
2018-09-23T16:02:29.804Z,0.50
2018-09-23T16:04:58.000Z,0.40
2018-09-23T16:07:26.231Z,0.60
2018-09-23T16:09:54.457Z,0.80
2018-09-23T16:12:22.667Z,0.53
2018-09-23T16:14:50.891Z,0.50
2018-09-23T16:17:19.125Z,0.40
2018-09-23T16:19:47.340Z,0.53
2018-09-23T16:22:15.599Z,0.50
2018-09-23T16:24:43.967Z,0.50
2018-09-23T16:27:12.164Z,0.50
2018-09-23T16:29:40.342Z,0.40
2018-09-23T16:32:08.625Z,0.40
2018-09-23T16:34:36.817Z,0.40
2018-09-23T16:37:05.020Z,0.40
2018-09-23T16:39:33.236Z,0.40
2018-09-23T16:42:01.479Z,0.77
2018-09-23T16:44:29.687Z,0.50
2018-09-23T16:46:57.885Z,0.60
2018-09-23T16:49:26.113Z,0.50
2018-09-23T16:51:54.303Z,0.30
2018-09-23T16:54:22.584Z,0.60
2018-09-23T16:56:50.797Z,0.47
2018-09-23T16:59:18.988Z,0.60
2018-09-23T17:01:47.198Z,0.40
2018-09-23T17:04:15.412Z,0.77
2018-09-23T17:06:43.673Z,0.40
2018-09-23T17:09:11.874Z,0.40
2018-09-23T17:11:40.088Z,0.50
2018-09-23T17:14:08.368Z,0.50
2018-09-23T17:16:36.529Z,0.50
2018-09-23T17:19:04.996Z,0.60
2018-09-23T17:21:33.234Z,0.40
2018-09-23T17:24:01.531Z,0.50
2018-09-23T17:26:29.759Z,0.40
2018-09-23T17:28:57.951Z,0.83
2018-09-23T17:31:56.979Z,0.50
2018-09-23T17:34:25.446Z,0.50
2018-09-23T17:36:53.618Z,0.40
2018-09-23T17:39:21.836Z,0.60
2018-09-23T17:43:19.540Z,0.50
2018-09-23T17:45:47.788Z,0.40
2018-09-23T17:48:15.990Z,0.60
2018-09-23T17:50:44.257Z,0.40
2018-09-23T17:53:12.472Z,0.50
2018-09-23T17:55:40.732Z,0.90
2018-09-23T17:58:08.886Z,0.50
2018-09-23T18:00:39.928Z,0.50
2018-09-23T18:03:08.146Z,0.47
2018-09-23T18:05:36.334Z,0.63
2018-09-23T18:08:04.549Z,0.70
2018-09-23T18:10:32.756Z,0.77
2018-09-23T18:13:00.966Z,1.17
2018-09-23T18:15:29.186Z,0.50
2018-09-23T18:17:57.408Z,0.63
2018-09-23T18:20:25.610Z,0.70
2018-09-23T18:22:54.153Z,0.77
2018-09-23T18:25:22.336Z,0.70
2018-09-23T18:27:50.608Z,0.60
2018-09-23T18:30:18.818Z,0.50
2018-09-23T18:32:47.071Z,0.73
2018-09-23T18:35:15.316Z,0.60
2018-09-23T18:37:43.597Z,0.73
2018-09-23T18:40:11.770Z,0.50
2018-09-23T18:42:40.008Z,0.40
2018-09-23T18:45:08.229Z,0.63
2018-09-23T18:47:36.444Z,0.77
2018-09-23T18:50:04.649Z,0.80
2018-09-23T18:52:32.880Z,0.83
2018-09-23T18:55:06.516Z,0.90
2018-09-23T18:57:34.743Z,0.60
2018-09-23T19:00:02.962Z,0.90
2018-09-23T19:02:31.184Z,0.50
2018-09-23T19:04:59.392Z,0.90
2018-09-23T19:07:27.582Z,0.73
2018-09-23T19:09:55.798Z,0.80
2018-09-23T19:12:24.055Z,0.70
2018-09-23T19:14:52.264Z,0.70
2018-09-23T19:17:20.597Z,1.70
2018-09-23T19:19:54.265Z,0.80
2018-09-23T19:22:27.819Z,1.10
2018-09-23T19:24:56.026Z,0.87
2018-09-23T19:27:24.394Z,1.17
2018-09-23T19:29:52.689Z,0.90
2018-09-23T19:32:20.913Z,0.60
2018-09-23T19:34:49.107Z,0.60
2018-09-23T19:37:17.310Z,0.60
2018-09-23T19:39:45.498Z,0.70
2018-09-23T19:42:13.713Z,0.90
2018-09-23T19:44:41.900Z,0.60
2018-09-23T19:47:10.109Z,0.60
2018-09-23T19:49:38.310Z,0.60
2018-09-23T19:52:06.543Z,0.93
2018-09-23T19:54:34.721Z,0.50
2018-09-23T19:57:02.915Z,0.90
2018-09-23T19:59:31.151Z,0.73
2018-09-23T20:01:59.556Z,1.23
2018-09-23T20:04:27.809Z,0.57
2018-09-23T20:06:56.030Z,0.60
2018-09-23T20:09:24.183Z,0.67
2018-09-23T20:11:52.377Z,0.70
2018-09-23T20:14:20.563Z,0.50
2018-09-23T20:16:48.768Z,0.60
2018-09-23T20:19:16.995Z,0.53
2018-09-23T20:21:45.219Z,0.60
2018-09-23T20:24:13.419Z,0.80
2018-09-23T20:26:41.815Z,0.50
2018-09-23T20:29:10.001Z,0.60
2018-09-23T20:31:38.201Z,1.83
2018-09-23T20:34:06.783Z,0.73
2018-09-23T20:36:34.982Z,0.50
2018-09-23T20:39:03.637Z,0.77
2018-09-23T20:41:31.833Z,0.87
2018-09-23T20:44:00.052Z,0.60
2018-09-23T20:46:28.233Z,0.90
2018-09-23T20:48:56.431Z,0.60
2018-09-23T20:51:24.697Z,0.73
2018-09-23T20:53:52.939Z,0.60
2018-09-23T20:56:21.103Z,2.30
2018-09-23T20:58:49.295Z,1.00
2018-09-23T21:01:17.523Z,0.90
2018-09-23T21:03:45.711Z,0.70
2018-09-23T21:06:13.911Z,1.10
2018-09-23T21:08:42.132Z,1.43
2018-09-23T21:11:10.338Z,1.03
2018-09-23T21:13:38.598Z,0.50
2018-09-23T21:16:06.905Z,1.57
2018-09-23T21:18:35.136Z,1.00
2018-09-23T21:21:03.368Z,0.87
2018-09-23T21:23:31.620Z,1.47
2018-09-23T21:25:59.857Z,0.80
2018-09-23T21:28:28.222Z,1.03
2018-09-23T21:30:56.427Z,0.80
2018-09-23T21:33:24.621Z,0.60
2018-09-23T21:35:52.829Z,0.83
2018-09-23T21:38:21.025Z,0.60
2018-09-23T21:40:49.265Z,1.17
2018-09-23T21:43:17.530Z,0.60
2018-09-23T21:45:45.789Z,0.90
2018-09-23T21:48:13.993Z,0.50
2018-09-23T21:50:42.181Z,0.53
2018-09-23T21:53:10.407Z,0.57
2018-09-23T21:55:38.623Z,0.50
2018-09-23T21:58:06.883Z,0.70
2018-09-23T22:00:40.376Z,0.73
2018-09-23T22:03:08.643Z,0.80
2018-09-23T22:05:37.130Z,0.80
2018-09-23T22:08:05.356Z,0.80
2018-09-23T22:10:33.584Z,0.60
2018-09-23T22:13:01.788Z,0.60
2018-09-23T22:15:29.986Z,0.90
2018-09-23T22:17:58.220Z,1.50
2018-09-23T22:20:26.909Z,0.70
2018-09-23T22:22:56.058Z,1.00
2018-09-23T22:25:24.525Z,1.20
2018-09-23T22:27:53.598Z,1.07
2018-09-23T22:30:22.088Z,0.93
2018-09-23T22:32:50.288Z,0.80
2018-09-23T22:35:18.486Z,0.90
2018-09-23T22:37:46.672Z,1.17
2018-09-23T22:40:14.899Z,1.07
2018-09-23T22:42:43.140Z,1.10
2018-09-23T22:45:11.337Z,1.00
2018-09-23T22:47:39.558Z,1.30
2018-09-23T22:50:07.755Z,1.60
2018-09-23T22:52:35.988Z,0.90
2018-09-23T22:55:04.257Z,1.43
2018-09-23T22:57:32.462Z,0.70
2018-09-23T23:00:00.664Z,0.83
2018-09-23T23:02:28.857Z,1.73
2018-09-23T23:04:57.087Z,1.47
2018-09-23T23:07:25.266Z,1.77
2018-09-23T23:09:53.489Z,0.90
2018-09-23T23:12:21.702Z,1.20
2018-09-23T23:14:49.904Z,1.20
2018-09-23T23:17:18.109Z,0.50
2018-09-23T23:19:46.288Z,0.93
2018-09-23T23:22:14.514Z,1.57
2018-09-23T23:24:42.718Z,1.20
2018-09-23T23:27:10.960Z,1.93
2018-09-23T23:29:39.150Z,2.10
2018-09-23T23:32:07.685Z,2.30
2018-09-23T23:34:35.942Z,1.33
2018-09-23T23:37:04.146Z,1.93
2018-09-23T23:39:32.366Z,0.97
2018-09-23T23:42:00.831Z,0.83
2018-09-23T23:44:29.110Z,0.90
2018-09-23T23:46:57.396Z,1.40
2018-09-23T23:49:25.884Z,1.20
2018-09-23T23:51:54.118Z,1.03
2018-09-23T23:54:22.378Z,1.33
2018-09-23T23:56:50.584Z,0.90
2018-09-23T23:59:18.800Z,1.20
